Time;durP1;ratioP1;P1;durP2;ratioP2;P2;SDS_P1;SDS_P2;PMS_P1;PMS_P2;Temp;Humidity;BMP_temperature;BMP_pressure;BME280_temperature;BME280_humidity;BME280_pressure;Samples;Min_cycle;Max_cycle;Signal;HPM_P1;HPM_P2
2023/09/13 00:02:21;;;;;;;22.22;12.20;;;;;;;13.35;65.45;100953.02;1781684;79;21961;-55
2023/09/13 00:05:27;;;;;;;22.67;12.47;;;;;;;13.34;65.51;100962.83;1766346;78;21291;-55
2023/09/13 00:08:35;;;;;;;23.27;12.05;;;;;;;13.31;65.56;100956.31;1794129;79;21335;-55
2023/09/13 00:11:44;;;;;;;24.95;13.05;;;;;;;13.29;65.73;100952.37;1756550;79;21278;-55
2023/09/13 00:14:50;;;;;;;19.62;11.80;;;;;;;13.28;65.75;100963.05;1794927;78;21379;-55
2023/09/13 00:17:57;;;;;;;19.40;12.05;;;;;;;13.25;65.73;100959.28;1749259;79;21358;-55
2023/09/13 00:21:04;;;;;;;19.73;12.70;;;;;;;13.22;65.72;100962.91;1770836;78;21354;-55
2023/09/13 00:24:11;;;;;;;20.72;12.63;;;;;;;13.17;65.79;100958.45;1765281;80;21358;-55
2023/09/13 00:27:16;;;;;;;23.87;12.80;;;;;;;13.16;65.92;100960.33;1769400;79;21554;-56
2023/09/13 00:30:21;;;;;;;21.27;13.40;;;;;;;13.14;65.96;100958.30;1779127;79;21334;-55
2023/09/13 00:33:29;;;;;;;20.17;12.05;;;;;;;13.13;65.98;100951.08;1773509;79;21932;-56
2023/09/13 00:36:35;;;;;;;21.40;12.75;;;;;;;13.09;65.97;100949.73;1775497;79;21346;-54
2023/09/13 00:39:41;;;;;;;19.42;12.58;;;;;;;13.04;66.03;100955.41;1783018;78;21414;-54
2023/09/13 00:42:47;;;;;;;17.82;11.80;;;;;;;13.01;66.18;100956.63;1798692;79;21358;-55
2023/09/13 00:45:56;;;;;;;22.15;13.25;;;;;;;12.99;66.25;100950.41;1777951;80;21335;-54
2023/09/13 00:49:04;;;;;;;21.37;12.95;;;;;;;12.98;66.30;100952.84;1805968;79;21335;-53
2023/09/13 00:52:11;;;;;;;22.93;12.70;;;;;;;12.96;66.31;100955.41;1777965;81;21366;-55
2023/09/13 00:55:18;;;;;;;20.95;12.82;;;;;;;12.92;66.43;100961.77;1787701;78;21800;-54
2023/09/13 00:58:23;;;;;;;20.77;12.47;;;;;;;12.90;66.50;100961.11;1805083;79;21327;-55
2023/09/13 01:01:30;;;;;;;20.95;13.15;;;;;;;12.89;66.60;100957.16;1776743;81;21856;-55
2023/09/13 01:04:38;;;;;;;21.77;13.03;;;;;;;12.87;66.66;100954.59;1805131;79;21370;-55
2023/09/13 01:07:49;;;;;;;26.35;13.32;;;;;;;12.86;66.72;100950.65;1778001;81;21236;-54
2023/09/13 01:10:56;;;;;;;20.27;13.15;;;;;;;12.86;66.80;100951.48;1801598;78;21428;-54
2023/09/13 01:14:01;;;;;;;21.20;13.62;;;;;;;12.85;66.85;100952.53;1768689;80;21350;-54
2023/09/13 01:17:14;;;;;;;20.90;12.93;;;;;;;12.83;66.81;100951.84;1769499;81;21903;-54
2023/09/13 01:21:01;;;;;;;17.55;12.95;;;;;;;12.80;66.87;100953.57;1772434;79;21359;-54
2023/09/13 01:24:44;;;;;;;19.60;12.85;;;;;;;12.79;66.97;100951.87;1786205;78;21851;-55
2023/09/13 01:28:39;;;;;;;23.18;13.55;;;;;;;12.76;66.98;100949.98;1772787;80;21359;-55
2023/09/13 01:31:45;;;;;;;20.23;12.58;;;;;;;12.74;67.05;100953.41;1774404;80;21327;-54
2023/09/13 01:34:51;;;;;;;18.65;12.70;;;;;;;12.68;67.11;100953.62;1804906;79;21847;-54
2023/09/13 01:37:58;;;;;;;26.87;13.10;;;;;;;12.66;67.21;100951.55;1772800;80;21366;-54
2023/09/13 01:41:28;;;;;;;21.73;12.70;;;;;;;12.63;67.25;100956.02;1798270;79;21867;-54
2023/09/13 01:44:34;;;;;;;19.95;12.85;;;;;;;12.61;67.33;100962.20;1766226;77;21391;-54
2023/09/13 01:47:40;;;;;;;21.05;13.43;;;;;;;12.60;67.51;100960.50;1732762;78;21872;-54
2023/09/13 01:50:47;;;;;;;20.43;13.70;;;;;;;12.61;67.59;100963.58;1795376;79;21371;-55
2023/09/13 01:53:55;;;;;;;21.30;13.45;;;;;;;12.61;67.64;100959.45;1750727;77;21891;-54
2023/09/13 01:57:02;;;;;;;20.43;13.15;;;;;;;12.62;67.67;100956.20;1762123;78;21326;-54
2023/09/13 02:00:09;;;;;;;24.37;13.10;;;;;;;12.59;67.63;100961.52;1792198;78;21971;-55
2023/09/13 02:03:16;;;;;;;21.57;13.28;;;;;;;12.55;67.58;100954.66;1729519;79;21822;-55
2023/09/13 02:06:22;;;;;;;22.52;14.15;;;;;;;12.50;67.56;100952.95;1769305;79;21864;-55
2023/09/13 02:09:29;;;;;;;22.73;14.40;;;;;;;12.48;67.57;100952.27;1742375;80;21454;-54
2023/09/13 02:12:34;;;;;;;19.40;13.30;;;;;;;12.44;67.62;100956.91;1803275;79;21346;-54
2023/09/13 02:15:42;;;;;;;19.20;13.62;;;;;;;12.39;67.67;100956.06;1773444;81;21946;-54
2023/09/13 02:18:50;;;;;;;22.30;13.30;;;;;;;12.38;67.72;100959.85;1803555;79;21339;-55
2023/09/13 02:21:57;;;;;;;21.93;12.98;;;;;;;12.34;67.71;100957.09;1774867;81;21373;-55
2023/09/13 02:25:04;;;;;;;19.82;12.50;;;;;;;12.30;67.75;100954.88;1804044;79;21719;-55
2023/09/13 02:28:12;;;;;;;23.87;13.62;;;;;;;12.28;67.82;100949.55;1768812;81;21343;-56
2023/09/13 02:31:18;;;;;;;23.98;13.50;;;;;;;12.24;67.79;100949.55;1784958;79;21819;-55
2023/09/13 02:34:24;;;;;;;22.35;14.03;;;;;;;12.22;67.88;100944.77;1765696;79;21247;-56
2023/09/13 02:37:29;;;;;;;23.30;15.15;;;;;;;12.20;67.95;100939.08;1767433;80;21279;-55
2023/09/13 02:40:36;;;;;;;22.02;13.75;;;;;;;12.18;67.99;100942.00;1774737;79;21347;-55
2023/09/13 02:43:43;;;;;;;23.38;14.53;;;;;;;12.16;68.08;100948.70;1768014;79;21381;-55
2023/09/13 02:46:50;;;;;;;21.23;14.20;;;;;;;12.13;68.18;100949.89;1764621;79;21374;-54
2023/09/13 02:49:57;;;;;;;22.65;14.03;;;;;;;12.11;68.25;100945.11;1776533;79;21334;-55
2023/09/13 02:53:03;;;;;;;20.17;13.65;;;;;;;12.10;68.28;100946.12;1772995;78;21307;-55
2023/09/13 02:56:16;;;;;;;21.52;13.80;;;;;;;12.09;68.38;100944.42;1785756;79;21386;-56
2023/09/13 02:59:22;;;;;;;22.02;14.40;;;;;;;12.07;68.44;100942.89;1790044;79;21413;-56
2023/09/13 03:02:27;;;;;;;22.75;14.15;;;;;;;12.08;68.60;100941.84;1774220;79;22097;-57
2023/09/13 03:05:33;;;;;;;22.60;13.95;;;;;;;12.10;68.72;100943.91;1769237;78;21398;-56
2023/09/13 03:08:39;;;;;;;28.50;13.65;;;;;;;12.11;68.72;100945.11;1747706;82;21364;-55
2023/09/13 03:11:47;;;;;;;22.90;14.93;;;;;;;12.08;68.67;100945.45;1741439;82;21442;-56
2023/09/13 03:14:53;;;;;;;23.22;14.18;;;;;;;12.05;68.65;100948.02;1748820;82;21366;-55
2023/09/13 03:18:00;;;;;;;26.37;15.32;;;;;;;12.01;68.59;100943.91;1747502;82;21421;-56
2023/09/13 03:21:12;;;;;;;22.22;15.10;;;;;;;12.00;68.66;100944.09;1774939;79;21402;-55
2023/09/13 03:24:15;;;;;;;24.98;15.48;;;;;;;11.99;68.72;100955.56;1768612;80;21806;-55
2023/09/13 03:27:22;;;;;;;32.10;17.48;;;;;;;11.95;68.64;100948.72;1786552;78;21839;-57
2023/09/13 03:30:28;;;;;;;36.30;20.00;;;;;;;11.89;68.57;100950.75;1742682;79;21880;-55
2023/09/13 03:33:35;;;;;;;35.43;19.60;;;;;;;11.84;68.53;100950.94;1726185;79;21311;-55
2023/09/13 03:36:43;;;;;;;34.38;18.45;;;;;;;11.80;68.58;100961.88;1783039;80;21355;-55
2023/09/13 03:39:50;;;;;;;28.80;18.30;;;;;;;11.79;68.70;100968.41;1769599;80;21343;-55
2023/09/13 03:42:57;;;;;;;31.15;17.27;;;;;;;11.77;68.74;100970.45;1805779;79;21821;-56
2023/09/13 03:46:03;;;;;;;28.62;17.77;;;;;;;11.78;68.83;100976.30;1777525;80;21474;-54
2023/09/13 03:49:11;;;;;;;24.70;16.48;;;;;;;11.79;68.95;100972.02;1787540;79;21315;-56
2023/09/13 03:52:17;;;;;;;29.10;16.55;;;;;;;11.83;69.06;100981.61;1804670;79;21346;-56
2023/09/13 03:55:23;;;;;;;23.57;16.27;;;;;;;11.86;69.13;100977.16;1777482;80;21351;-55
2023/09/13 03:58:30;;;;;;;27.00;15.10;;;;;;;11.90;69.20;100987.28;1804880;79;21374;-56
2023/09/13 04:01:36;;;;;;;25.23;14.83;;;;;;;11.92;69.18;100994.84;1777474;80;21360;-56
2023/09/13 04:04:42;;;;;;;29.63;15.13;;;;;;;11.95;69.25;100997.24;1804707;79;21366;-55
2023/09/13 04:07:48;;;;;;;23.87;14.47;;;;;;;11.98;69.23;100999.64;1777432;81;21319;-55
2023/09/13 04:10:53;;;;;;;30.32;15.60;;;;;;;11.97;69.17;100999.31;1784757;79;21436;-54
2023/09/13 04:14:00;;;;;;;25.62;14.45;;;;;;;11.98;69.19;101002.39;1777413;80;21354;-55
2023/09/13 04:17:09;;;;;;;29.00;15.48;;;;;;;11.99;69.19;100999.97;1805069;77;21351;-56
2023/09/13 04:20:17;;;;;;;28.60;15.85;;;;;;;11.99;69.18;101009.08;1777455;81;21448;-55
2023/09/13 04:23:23;;;;;;;25.25;15.28;;;;;;;12.03;69.28;101008.23;1804679;79;21386;-55
2023/09/13 04:26:28;;;;;;;25.80;15.08;;;;;;;12.02;69.25;101001.87;1777488;81;21366;-55
2023/09/13 04:29:39;;;;;;;26.15;15.03;;;;;;;12.04;69.29;101009.94;1804844;79;21871;-54
2023/09/13 04:32:42;;;;;;;30.15;14.03;;;;;;;12.03;69.26;101009.59;1777484;81;21851;-55
2023/09/13 04:35:49;;;;;;;27.70;16.10;;;;;;;12.02;69.26;101005.12;1804776;79;21402;-55
2023/09/13 04:38:56;;;;;;;25.32;14.23;;;;;;;12.05;69.34;101013.01;1770681;79;21253;-55
2023/09/13 04:42:02;;;;;;;30.12;16.70;;;;;;;12.08;69.39;101014.06;1763179;79;21267;-56
2023/09/13 04:45:11;;;;;;;25.70;16.23;;;;;;;12.12;69.48;101018.17;1794937;79;21353;-56
2023/09/13 04:48:16;;;;;;;26.00;15.32;;;;;;;12.16;69.54;101018.20;1770716;79;21192;-56
2023/09/13 04:51:21;;;;;;;31.33;15.83;;;;;;;12.23;69.68;101012.85;1770677;79;21212;-56
2023/09/13 04:54:26;;;;;;;27.42;16.62;;;;;;;12.32;69.77;101025.58;1802445;79;21258;-55
2023/09/13 04:57:32;;;;;;;30.80;16.42;;;;;;;12.39;69.88;101028.83;1775571;80;21394;-53
2023/09/13 05:00:38;;;;;;;27.48;15.90;;;;;;;12.48;69.97;101025.04;1734540;80;21740;-53
2023/09/13 05:03:46;;;;;;;30.32;15.43;;;;;;;12.58;70.06;101022.98;1751126;79;21209;-53
2023/09/13 05:06:52;;;;;;;29.65;15.48;;;;;;;12.69;70.15;101030.86;1754322;79;21764;-54
2023/09/13 05:09:59;;;;;;;27.48;15.38;;;;;;;12.77;70.19;101030.86;1768944;79;21426;-54
2023/09/13 05:13:04;;;;;;;29.98;15.50;;;;;;;12.87;70.25;101027.92;1725451;82;21302;-54
2023/09/13 05:16:12;;;;;;;30.52;15.50;;;;;;;12.96;70.28;101024.11;1773231;79;21869;-55
2023/09/13 05:19:19;;;;;;;29.90;16.48;;;;;;;13.05;70.35;101025.32;1795493;79;21460;-54
2023/09/13 05:22:25;;;;;;;28.10;16.02;;;;;;;13.18;70.47;101026.14;1804211;79;21348;-56
2023/09/13 05:25:31;;;;;;;23.87;15.03;;;;;;;13.31;70.52;101031.94;1788306;79;21330;-55
2023/09/13 05:28:40;;;;;;;28.17;15.25;;;;;;;13.41;70.56;101025.19;1776460;79;21394;-54
2023/09/13 05:31:47;;;;;;;30.00;15.60;;;;;;;13.53;70.66;101024.28;1766047;79;21935;-59
2023/09/13 05:34:57;;;;;;;30.43;14.98;;;;;;;13.66;70.77;101027.83;1717923;79;21192;-59
2023/09/13 05:38:02;;;;;;;33.15;14.70;;;;;;;13.79;70.80;101028.10;1796791;80;21874;-59
2023/09/13 05:41:13;;;;;;;27.32;14.10;;;;;;;13.91;70.89;101026.13;1798050;79;21377;-55
2023/09/13 05:44:24;;;;;;;23.85;13.75;;;;;;;14.05;70.97;101021.76;1782701;79;21344;-54
2023/09/13 05:47:27;;;;;;;28.00;14.18;;;;;;;14.18;70.99;101017.85;1798810;79;21374;-55
2023/09/13 05:50:36;;;;;;;24.98;15.40;;;;;;;14.30;71.05;101013.67;1773717;79;21765;-56
2023/09/13 05:53:44;;;;;;;28.92;15.55;;;;;;;14.44;71.05;101019.75;1771204;80;21347;-53
2023/09/13 05:56:49;;;;;;;29.82;14.20;;;;;;;14.55;71.06;101016.55;1745655;82;21448;-53
2023/09/13 05:59:56;;;;;;;25.82;14.35;;;;;;;14.65;71.01;101022.67;1787761;79;21457;-53
2023/09/13 06:03:04;;;;;;;26.62;14.35;;;;;;;14.74;70.99;101023.79;1789605;79;21382;-53
2023/09/13 06:06:10;;;;;;;27.80;15.58;;;;;;;14.85;70.98;101016.44;1785959;79;21430;-54
2023/09/13 06:09:15;;;;;;;23.30;15.03;;;;;;;14.97;70.95;101021.81;1775170;80;21192;-53
2023/09/13 06:12:21;;;;;;;29.80;14.23;;;;;;;15.08;70.94;101012.75;1771660;81;21366;-54
2023/09/13 06:15:27;;;;;;;20.62;13.58;;;;;;;15.19;70.93;101016.41;1780797;79;21398;-54
2023/09/13 06:18:35;;;;;;;21.57;14.00;;;;;;;15.31;70.92;101025.39;1804447;79;21327;-54
2023/09/13 06:21:43;;;;;;;23.87;13.98;;;;;;;15.41;70.91;101020.48;1789714;79;21836;-54
2023/09/13 06:24:50;;;;;;;23.35;14.10;;;;;;;15.51;70.88;101016.89;1765072;79;21339;-54
2023/09/13 06:27:56;;;;;;;24.55;14.18;;;;;;;15.62;70.86;101015.02;1785505;78;21473;-54
2023/09/13 06:31:05;;;;;;;22.95;14.25;;;;;;;15.73;70.85;101025.56;1742910;81;21347;-54
2023/09/13 06:34:13;;;;;;;19.40;12.80;;;;;;;15.87;70.90;101019.69;1756012;79;21253;-53
2023/09/13 06:37:25;;;;;;;20.20;13.43;;;;;;;15.98;70.91;101028.30;1761508;79;21288;-54
2023/09/13 06:40:33;;;;;;;20.70;13.40;;;;;;;16.09;70.83;101031.92;1737309;79;21440;-54
2023/09/13 06:43:41;;;;;;;25.62;13.10;;;;;;;16.19;70.81;101025.56;1759828;79;21289;-54
2023/09/13 06:46:49;;;;;;;22.48;13.95;;;;;;;16.31;70.72;101024.01;1760495;80;21378;-52
2023/09/13 06:49:57;;;;;;;22.00;13.53;;;;;;;16.41;70.67;101029.21;1759245;79;21378;-53
2023/09/13 06:53:04;;;;;;;22.42;12.53;;;;;;;16.54;70.69;101025.74;1728044;81;21355;-53
2023/09/13 06:56:12;;;;;;;23.80;13.65;;;;;;;16.66;70.70;101029.67;1705722;80;21462;-54
2023/09/13 06:59:21;;;;;;;19.23;12.43;;;;;;;16.79;70.69;101028.41;1730897;80;21409;-53
2023/09/13 07:02:29;;;;;;;22.35;13.05;;;;;;;16.92;70.67;101038.20;1749685;80;21398;-54
2023/09/13 07:05:36;;;;;;;20.12;12.40;;;;;;;17.02;70.58;101022.08;1734993;81;21773;-54
2023/09/13 07:08:43;;;;;;;16.45;12.28;;;;;;;17.12;70.46;101026.73;1771697;78;21185;-52
2023/09/13 07:11:52;;;;;;;27.65;12.05;;;;;;;17.22;70.39;101030.84;1770664;78;21806;-54
2023/09/13 07:15:02;;;;;;;21.95;12.33;;;;;;;17.32;70.34;101030.48;1794875;79;21378;-53
2023/09/13 07:18:08;;;;;;;20.08;12.28;;;;;;;17.44;70.30;101034.40;1745246;80;21370;-53
2023/09/13 07:21:15;;;;;;;21.57;11.80;;;;;;;17.56;70.25;101030.02;1772247;79;21471;-53
2023/09/13 07:24:22;;;;;;;19.82;12.82;;;;;;;17.68;70.25;101022.81;1784378;78;21492;-51
2023/09/13 07:27:30;;;;;;;16.12;11.57;;;;;;;17.79;70.15;101027.80;1792171;79;21192;-52
2023/09/13 07:30:37;;;;;;;16.95;11.28;;;;;;;17.89;70.05;101022.70;1777875;79;21236;-53
2023/09/13 07:33:43;;;;;;;19.75;11.15;;;;;;;17.99;69.93;101025.08;1783532;79;21393;-53
2023/09/13 07:36:50;;;;;;;20.55;11.60;;;;;;;18.08;69.81;101025.20;1790246;79;21399;-54
2023/09/13 07:39:57;;;;;;;19.17;10.65;;;;;;;18.17;69.70;101033.12;1802567;79;21928;-53
2023/09/13 07:43:04;;;;;;;20.40;11.55;;;;;;;18.32;69.69;101026.02;1803657;79;21860;-54
2023/09/13 07:46:10;;;;;;;16.35;10.65;;;;;;;18.45;69.57;101025.55;1799047;79;21410;-53
2023/09/13 07:49:18;;;;;;;17.35;10.38;;;;;;;18.53;69.41;101024.48;1770282;79;21363;-55
2023/09/13 07:52:26;;;;;;;18.98;10.95;;;;;;;18.63;69.29;101020.77;1761877;80;21378;-53
2023/09/13 07:55:35;;;;;;;16.82;10.55;;;;;;;18.73;69.20;101017.88;1801555;78;21373;-55
2023/09/13 07:58:42;;;;;;;17.37;9.43;;;;;;;18.85;69.10;101021.71;1766409;80;21367;-53
2023/09/13 08:01:48;;;;;;;13.60;9.38;;;;;;;18.95;68.95;101017.98;1761820;79;21803;-55
2023/09/13 08:04:55;;;;;;;13.20;9.30;;;;;;;19.07;68.85;101013.50;1764458;79;21240;-53
2023/09/13 08:08:03;;;;;;;16.37;9.38;;;;;;;19.17;68.62;101021.39;1745194;77;21324;-53
2023/09/13 08:11:10;;;;;;;20.65;10.23;;;;;;;19.28;68.49;101015.20;1748616;78;21215;-56
2023/09/13 08:14:19;;;;;;;16.10;8.45;;;;;;;19.37;68.26;101014.42;1760826;79;21239;-55
2023/09/13 08:17:24;;;;;;;16.55;9.13;;;;;;;19.46;68.07;101018.66;1753740;79;21787;-54
2023/09/13 08:20:31;;;;;;;13.88;8.80;;;;;;;19.54;67.88;101015.64;1759527;79;21212;-54
2023/09/13 08:23:37;;;;;;;15.78;8.68;;;;;;;19.61;67.69;101002.59;1760687;79;21924;-54
2023/09/13 08:26:43;;;;;;;18.40;9.83;;;;;;;19.67;67.46;101002.58;1755751;79;21289;-55
2023/09/13 08:29:50;;;;;;;13.95;8.83;;;;;;;19.76;67.28;101008.72;1752174;79;21214;-54
2023/09/13 08:32:56;;;;;;;15.25;9.48;;;;;;;19.83;67.09;101002.61;1772748;78;21224;-55
2023/09/13 08:36:02;;;;;;;14.70;8.15;;;;;;;19.90;66.86;101007.61;1756829;79;21239;-55
2023/09/13 08:39:08;;;;;;;20.35;8.55;;;;;;;19.96;66.64;101006.72;1768143;79;21211;-55
2023/09/13 08:42:15;;;;;;;15.43;8.53;;;;;;;20.03;66.43;100996.41;1751039;79;21294;-55
2023/09/13 08:45:22;;;;;;;18.42;8.50;;;;;;;20.11;66.27;100999.78;1757345;79;21325;-54
2023/09/13 08:48:28;;;;;;;15.63;8.13;;;;;;;20.23;66.17;100998.58;1738125;81;21788;-54
2023/09/13 08:51:35;;;;;;;14.00;8.25;;;;;;;20.33;65.96;100996.14;1752753;79;21296;-55
2023/09/13 08:54:41;;;;;;;13.20;8.73;;;;;;;20.44;65.80;100995.42;1760030;81;21765;-55
2023/09/13 08:57:49;;;;;;;12.95;8.33;;;;;;;20.54;65.60;100994.39;1743707;81;22177;-54
2023/09/13 09:00:55;;;;;;;13.22;7.47;;;;;;;20.62;65.38;100994.11;1777506;79;21374;-55
2023/09/13 09:04:05;;;;;;;13.43;7.83;;;;;;;20.71;65.14;101000.56;1799956;79;21723;-55
2023/09/13 09:07:12;;;;;;;12.13;8.95;;;;;;;20.79;64.92;100999.42;1802159;79;21892;-55
2023/09/13 09:10:19;;;;;;;11.60;7.70;;;;;;;20.88;64.72;100996.69;1802982;79;21350;-55
2023/09/13 09:13:24;;;;;;;10.95;6.87;;;;;;;20.96;64.49;100990.87;1803050;79;21410;-54
2023/09/13 09:16:30;;;;;;;13.58;7.67;;;;;;;21.03;64.27;100993.55;1753876;79;21268;-55
2023/09/13 09:19:36;;;;;;;13.25;7.30;;;;;;;21.11;64.03;100988.56;1783883;79;21931;-55
2023/09/13 09:22:44;;;;;;;14.53;7.90;;;;;;;21.20;63.89;100988.56;1760450;79;21240;-56
2023/09/13 09:25:51;;;;;;;12.18;7.58;;;;;;;21.27;63.57;100981.53;1738049;82;21216;-55
2023/09/13 09:28:57;;;;;;;11.15;7.03;;;;;;;21.32;63.30;100979.77;1729393;79;21244;-55
2023/09/13 09:32:08;;;;;;;10.20;7.10;;;;;;;21.40;63.03;100981.39;1736434;80;21232;-55
2023/09/13 09:35:17;;;;;;;9.30;6.58;;;;;;;21.48;62.82;100979.16;1709946;79;21301;-56
2023/09/13 09:38:31;;;;;;;8.73;6.10;;;;;;;21.58;62.60;100981.41;1718196;80;21223;-56
2023/09/13 09:41:45;;;;;;;11.83;6.58;;;;;;;21.61;62.25;100972.01;1735342;81;22719;-56
2023/09/13 09:44:51;;;;;;;17.05;6.83;;;;;;;21.64;61.95;100972.97;1787527;79;21863;-56
2023/09/13 09:48:00;;;;;;;11.78;6.40;;;;;;;21.68;61.69;100972.79;1774656;77;21721;-55
2023/09/13 09:51:08;;;;;;;11.73;6.22;;;;;;;21.76;61.54;100968.33;1780276;78;21537;-53
2023/09/13 09:54:14;;;;;;;13.32;7.10;;;;;;;21.83;61.26;100967.71;1776560;79;21319;-54
2023/09/13 09:57:29;;;;;;;9.80;6.12;;;;;;;21.90;60.98;100962.87;1729456;81;21748;-54
2023/09/13 10:00:34;;;;;;;12.47;6.47;;;;;;;21.99;60.75;100967.03;1778901;79;21335;-55
2023/09/13 10:03:43;;;;;;;10.40;6.25;;;;;;;22.09;60.50;100967.33;1730110;80;21388;-54
2023/09/13 10:07:07;;;;;;;10.53;6.25;;;;;;;22.19;60.21;100963.96;1782120;79;21907;-55
2023/09/13 10:10:14;;;;;;;11.83;6.50;;;;;;;22.32;59.97;100969.34;1737043;78;21231;-55
2023/09/13 10:13:22;;;;;;;12.98;5.80;;;;;;;22.45;59.71;100969.69;1757811;79;21397;-56
2023/09/13 10:16:31;;;;;;;12.73;6.28;;;;;;;22.57;59.43;100970.58;1755113;80;21426;-55
2023/09/13 10:19:39;;;;;;;11.03;5.90;;;;;;;22.71;59.16;100972.06;1756985;80;21736;-54
2023/09/13 10:22:49;;;;;;;10.15;5.85;;;;;;;22.83;58.92;100960.38;1764598;79;21239;-57
2023/09/13 10:25:56;;;;;;;13.22;6.30;;;;;;;22.90;58.54;100965.28;1745381;79;21887;-54
2023/09/13 10:29:04;;;;;;;8.40;5.20;;;;;;;22.87;58.16;100962.44;1773530;79;21358;-54
2023/09/13 10:32:14;;;;;;;11.18;6.00;;;;;;;22.90;57.77;100955.50;1770216;79;21737;-55
2023/09/13 10:35:20;;;;;;;8.13;5.65;;;;;;;22.98;57.64;100963.52;1807717;79;21366;-53
2023/09/13 10:38:32;;;;;;;12.15;6.05;;;;;;;23.11;57.40;100961.89;1745530;79;21972;-54
2023/09/13 10:41:42;;;;;;;13.62;8.25;;;;;;;23.24;57.13;100951.33;1736178;79;21786;-53
2023/09/13 10:44:47;;;;;;;11.93;6.25;;;;;;;23.38;56.80;100951.94;1755057;79;21398;-53
2023/09/13 10:47:55;;;;;;;11.50;6.65;;;;;;;23.46;56.46;100942.64;1770470;81;21378;-53
2023/09/13 10:51:02;;;;;;;16.67;6.58;;;;;;;23.55;56.25;100943.94;1793925;79;21370;-54
2023/09/13 10:54:09;;;;;;;14.20;5.90;;;;;;;23.64;55.91;100940.22;1797682;79;21390;-53
2023/09/13 10:57:16;;;;;;;16.87;5.78;;;;;;;23.74;55.75;100946.00;1793262;79;21347;-54
2023/09/13 11:00:22;;;;;;;11.35;5.72;;;;;;;23.86;55.55;100938.98;1765950;80;21761;-54
2023/09/13 11:03:32;;;;;;;10.90;5.85;;;;;;;23.99;55.28;100942.34;1797444;80;21197;-53
2023/09/13 11:06:39;;;;;;;7.72;5.10;;;;;;;24.11;54.94;100940.37;1777155;79;21311;-54
2023/09/13 11:09:46;;;;;;;12.50;5.55;;;;;;;24.22;54.64;100933.86;1770143;80;21323;-55
2023/09/13 11:12:52;;;;;;;8.38;6.08;;;;;;;24.35;54.37;100932.14;1770346;78;21250;-57
2023/09/13 11:16:01;;;;;;;9.78;5.78;;;;;;;24.47;54.09;100936.25;1708339;79;21244;-56
2023/09/13 11:19:06;;;;;;;10.13;6.05;;;;;;;24.59;53.81;100936.47;1716085;79;21251;-55
2023/09/13 11:22:11;;;;;;;12.00;5.97;;;;;;;24.67;53.42;100938.05;1706802;80;21780;-56
2023/09/13 11:25:18;;;;;;;14.25;6.15;;;;;;;24.64;53.07;100932.36;1747227;79;21883;-56
2023/09/13 11:28:48;;;;;;;10.55;5.53;;;;;;;24.63;52.75;100929.81;1732256;80;21777;-56
2023/09/13 11:32:09;;;;;;;12.33;6.35;;;;;;;24.67;52.47;100926.28;1785018;77;21872;-56
2023/09/13 11:35:17;;;;;;;9.63;5.43;;;;;;;24.74;52.11;100920.51;1788622;79;21173;-53
2023/09/13 11:38:25;;;;;;;15.60;5.95;;;;;;;24.79;51.78;100917.25;1734675;79;21362;-54
2023/09/13 11:41:30;;;;;;;8.85;5.95;;;;;;;24.89;51.53;100924.39;1785719;79;21224;-55
2023/09/13 11:44:41;;;;;;;6.15;4.83;;;;;;;24.88;51.10;100920.45;1768802;79;21188;-54
2023/09/13 11:47:47;;;;;;;10.18;5.72;;;;;;;24.91;50.89;100916.59;1775033;78;21249;-55
2023/09/13 11:51:00;;;;;;;7.45;4.70;;;;;;;24.97;50.54;100915.55;1770605;78;21701;-55
2023/09/13 11:54:04;;;;;;;8.25;4.90;;;;;;;25.00;50.19;100919.27;1755007;79;21215;-54
2023/09/13 11:57:10;;;;;;;7.67;5.05;;;;;;;25.00;49.79;100912.27;1759841;78;21239;-55
2023/09/13 12:00:23;;;;;;;10.85;4.85;;;;;;;24.99;49.38;100914.75;1697049;82;21282;-54
2023/09/13 12:03:31;;;;;;;12.35;5.08;;;;;;;25.04;49.20;100909.23;1765140;78;21551;-53
2023/09/13 12:06:43;;;;;;;10.20;5.55;;;;;;;25.12;49.02;100907.11;1751501;79;21303;-55
2023/09/13 12:10:03;;;;;;;8.43;5.22;;;;;;;25.20;48.89;100901.06;1759287;79;21248;-54
2023/09/13 12:13:12;;;;;;;10.63;4.97;;;;;;;25.26;48.55;100908.43;1768066;78;21773;-56
2023/09/13 12:16:19;;;;;;;9.10;5.30;;;;;;;25.24;48.24;100903.62;1758666;79;21266;-56
2023/09/13 12:19:26;;;;;;;9.85;5.42;;;;;;;25.19;47.96;100904.95;1767797;79;21792;-54
2023/09/13 12:22:33;;;;;;;8.13;5.30;;;;;;;25.15;47.63;100902.39;1729182;79;21416;-55
2023/09/13 12:25:41;;;;;;;13.40;5.37;;;;;;;25.14;47.40;100902.07;1750781;79;22072;-55
2023/09/13 12:28:52;;;;;;;7.72;5.05;;;;;;;25.13;47.12;100901.78;1751062;78;21287;-55
2023/09/13 12:31:59;;;;;;;7.87;4.83;;;;;;;24.96;46.69;100899.86;1754193;79;21275;-55
2023/09/13 12:35:04;;;;;;;6.83;4.65;;;;;;;24.82;46.45;100890.67;1775290;78;21271;-55
2023/09/13 12:38:12;;;;;;;9.78;5.25;;;;;;;24.75;46.26;100894.22;1758231;79;21259;-55
2023/09/13 12:41:30;;;;;;;8.15;5.15;;;;;;;24.62;45.99;100894.52;1727359;80;21582;-56
2023/09/13 12:44:39;;;;;;;10.90;4.87;;;;;;;24.52;45.82;100886.81;1724233;79;21204;-56
2023/09/13 12:47:45;;;;;;;8.15;4.80;;;;;;;24.46;45.62;100896.77;1737933;80;21266;-56
2023/09/13 12:50:54;;;;;;;6.95;5.12;;;;;;;24.39;45.46;100898.88;1728734;80;21248;-55
2023/09/13 12:54:03;;;;;;;8.40;4.80;;;;;;;24.33;45.29;100893.76;1747057;80;21667;-53
2023/09/13 12:57:08;;;;;;;12.28;5.67;;;;;;;24.30;45.16;100894.27;1738510;80;21231;-53
2023/09/13 13:00:20;;;;;;;8.03;5.05;;;;;;;24.33;45.25;100897.95;1705929;82;21251;-54
2023/09/13 13:03:29;;;;;;;8.13;5.20;;;;;;;24.33;45.07;100894.30;1712455;82;21240;-54
2023/09/13 13:06:37;;;;;;;10.18;5.40;;;;;;;24.32;44.82;100890.67;1712004;82;21900;-53
2023/09/13 13:09:45;;;;;;;7.25;4.65;;;;;;;24.31;44.63;100890.35;1733434;82;21418;-55
2023/09/13 13:12:52;;;;;;;6.65;4.78;;;;;;;24.28;44.43;100887.20;1713960;79;21247;-55
2023/09/13 13:16:00;;;;;;;8.08;4.33;;;;;;;24.22;44.29;100881.23;1720230;79;21823;-56
2023/09/13 13:19:08;;;;;;;12.78;6.10;;;;;;;24.21;44.16;100886.00;1732700;80;21292;-54
2023/09/13 13:22:17;;;;;;;8.33;5.42;;;;;;;24.17;44.06;100887.59;1734671;80;21278;-54
2023/09/13 13:25:26;;;;;;;10.08;5.50;;;;;;;24.13;43.92;100882.21;1735960;81;21726;-55
2023/09/13 13:28:33;;;;;;;9.95;5.47;;;;;;;24.12;43.81;100878.27;1714265;80;21770;-56
2023/09/13 13:31:39;;;;;;;9.90;5.53;;;;;;;24.07;43.63;100877.60;1755015;78;21232;-55
2023/09/13 13:34:48;;;;;;;6.45;4.22;;;;;;;23.99;43.49;100874.38;1762674;78;21325;-56
2023/09/13 13:37:56;;;;;;;9.75;5.20;;;;;;;23.96;43.47;100868.69;1780042;79;21467;-56
2023/09/13 13:41:14;;;;;;;8.05;5.15;;;;;;;23.99;43.47;100866.81;1759966;78;21350;-55
2023/09/13 13:44:23;;;;;;;10.90;5.92;;;;;;;23.96;43.28;100866.47;1805121;77;21398;-55
2023/09/13 13:47:30;;;;;;;9.68;4.45;;;;;;;23.94;43.19;100866.72;1732786;80;21357;-56
2023/09/13 13:50:37;;;;;;;9.50;4.17;;;;;;;23.91;43.08;100858.84;1738288;80;21389;-55
2023/09/13 13:53:44;;;;;;;7.28;4.58;;;;;;;23.90;42.97;100860.45;1774129;80;21366;-56
2023/09/13 13:56:50;;;;;;;6.42;4.33;;;;;;;23.88;42.92;100863.50;1770790;79;21374;-56
2023/09/13 13:59:58;;;;;;;9.90;4.80;;;;;;;23.89;42.87;100866.62;1772416;79;21231;-56
2023/09/13 14:03:04;;;;;;;10.72;4.97;;;;;;;23.89;42.84;100868.02;1744237;80;21802;-54
2023/09/13 14:06:10;;;;;;;10.72;5.80;;;;;;;23.90;42.75;100872.50;1784682;78;21260;-56
2023/09/13 14:09:17;;;;;;;7.58;4.60;;;;;;;23.92;42.67;100870.31;1761419;79;21278;-55
2023/09/13 14:12:22;;;;;;;8.60;4.78;;;;;;;23.95;42.60;100872.59;1726401;80;21796;-56
2023/09/13 14:15:29;;;;;;;9.48;4.37;;;;;;;23.95;42.53;100871.20;1735820;80;21218;-55
2023/09/13 14:18:35;;;;;;;6.60;4.60;;;;;;;23.93;42.45;100869.20;1777779;78;21204;-56
2023/09/13 14:21:42;;;;;;;6.65;4.33;;;;;;;23.87;42.33;100863.75;1794600;78;21205;-56